createdAt,value
2022-08-05T00:08:38.271Z,97140.25
2022-08-05T00:18:45.571Z,97136.16
2022-08-05T00:28:47.149Z,97133.47
2022-08-05T00:38:51.758Z,97131.63
2022-08-05T00:48:54.694Z,97125.94
2022-08-05T00:59:00.235Z,97122.38
2022-08-05T01:09:04.166Z,97120.13
2022-08-05T01:19:46.358Z,97118.22
2022-08-05T01:29:50.322Z,97122.72
2022-08-05T01:39:55.102Z,97128.06
2022-08-05T01:50:03.416Z,97120.28
2022-08-05T02:00:12.594Z,97112.78
2022-08-05T02:10:17.493Z,97113.13
2022-08-05T02:20:23.270Z,97115.88
2022-08-05T02:30:38.919Z,97122.19
2022-08-05T02:40:57.991Z,97126.56
2022-08-05T02:51:00.639Z,97129.63
2022-08-05T03:01:03.757Z,97127.19
2022-08-05T03:11:55.744Z,97122.81
2022-08-05T03:21:41.436Z,97115.97
2022-08-05T03:31:56.745Z,97129.09
2022-08-05T03:41:59.258Z,97125.59
2022-08-05T03:52:38.610Z,97138.03
2022-08-05T04:02:38.764Z,97122.56
2022-08-05T04:22:41.569Z,97123.66
2022-08-05T04:32:46.775Z,97128.50
2022-08-05T04:42:51.607Z,97170.56
2022-08-05T04:52:54.346Z,97155.97
2022-08-05T05:03:00.211Z,97170.91
2022-08-05T05:13:05.807Z,97177.47
2022-08-05T05:23:08.215Z,97189.13
2022-08-05T05:33:23.391Z,97191.13
2022-08-05T05:43:57.084Z,97196.13
2022-08-05T05:53:57.960Z,97187.97
2022-08-05T06:04:03.783Z,97202.31
2022-08-05T06:14:09.201Z,97206.59
2022-08-05T06:24:14.662Z,97219.25
2022-08-05T06:34:16.214Z,97213.91
2022-08-05T06:44:22.121Z,97207.41
2022-08-05T06:54:25.820Z,97206.47
2022-08-05T07:04:27.567Z,97251.13
2022-08-05T07:14:48.359Z,97252.13
2022-08-05T07:24:52.540Z,97272.66
2022-08-05T07:34:57.733Z,97301.88
2022-08-05T07:44:59.586Z,97281.00
2022-08-05T07:55:02.279Z,97293.34
2022-08-05T08:05:17.641Z,97278.97
2022-08-05T08:15:22.791Z,97274.47
2022-08-05T08:26:00.560Z,97290.38
2022-08-05T08:36:29.409Z,97317.47
2022-08-05T08:46:27.376Z,97320.81
2022-08-05T08:56:30.182Z,97321.69
2022-08-05T09:06:31.809Z,97331.72
2022-08-05T09:16:33.654Z,97353.19
2022-08-05T09:26:36.772Z,97360.22
2022-08-05T09:36:55.697Z,97350.28
2022-08-05T09:47:15.444Z,97356.47
2022-08-05T09:57:39.438Z,97342.19
2022-08-05T10:08:35.379Z,97346.00
2022-08-05T10:18:17.462Z,97342.09
2022-08-05T10:28:29.608Z,97333.13
2022-08-05T10:38:35.292Z,97327.56
2022-08-05T10:48:52.612Z,97318.81
2022-08-05T10:59:11.381Z,97321.47
2022-08-05T11:09:32.310Z,97319.56
2022-08-05T11:20:17.072Z,97314.88
2022-08-05T11:30:10.509Z,97312.34
2022-08-05T11:40:12.163Z,97327.19
2022-08-05T11:50:21.039Z,97313.16
2022-08-05T12:00:27.607Z,97300.75
2022-08-05T12:10:43.374Z,97289.28
2022-08-05T12:20:47.898Z,97286.09
2022-08-05T12:30:50.934Z,97289.72
2022-08-05T12:40:53.762Z,97273.16
2022-08-05T12:52:10.526Z,97272.72
2022-08-05T13:02:02.674Z,97264.63
2022-08-05T13:12:19.769Z,97249.38
2022-08-05T13:22:29.138Z,97235.34
2022-08-05T13:32:34.081Z,97228.13
2022-08-05T13:42:39.429Z,97214.47
2022-08-05T13:52:42.834Z,97200.84
2022-08-05T14:02:45.612Z,97199.47
2022-08-05T14:12:49.123Z,97196.50
2022-08-05T14:22:57.578Z,97200.69
2022-08-05T14:32:59.430Z,97186.66
2022-08-05T14:43:00.896Z,97172.03
2022-08-05T14:53:02.658Z,97156.84
2022-08-05T15:03:07.422Z,97147.41
2022-08-05T15:13:11.350Z,97131.00
2022-08-05T15:23:13.421Z,97139.88
2022-08-05T15:34:04.175Z,97154.31
2022-08-05T15:43:45.713Z,97164.72
2022-08-05T15:53:51.793Z,97169.56
2022-08-05T16:03:53.394Z,97181.84
2022-08-05T16:13:54.980Z,97180.91
2022-08-05T16:24:01.644Z,97182.34
2022-08-05T16:34:04.897Z,97184.47
2022-08-05T16:44:13.501Z,97184.03
2022-08-05T16:54:17.492Z,97172.16
2022-08-05T17:04:22.137Z,97174.69
2022-08-05T17:14:36.785Z,97178.44
2022-08-05T17:24:46.292Z,97185.97
2022-08-05T17:34:58.807Z,97192.09
2022-08-05T17:45:17.884Z,97195.66
2022-08-05T17:55:27.340Z,97200.47
2022-08-05T18:05:36.375Z,97221.72
2022-08-05T18:15:38.696Z,97225.81
2022-08-05T18:25:41.475Z,97247.66
2022-08-05T18:36:01.422Z,97262.59
2022-08-05T18:46:07.069Z,97276.19
2022-08-05T18:56:12.554Z,97295.84
2022-08-05T19:06:21.695Z,97289.66
2022-08-05T19:16:28.552Z,97305.31
2022-08-05T19:26:31.768Z,97339.97
2022-08-05T19:36:33.239Z,97330.66
2022-08-05T19:46:37.747Z,97341.91
2022-08-05T19:56:41.038Z,97347.25
2022-08-05T20:06:46.424Z,97366.25
2022-08-05T20:16:48.307Z,97381.75
2022-08-05T20:26:49.951Z,97401.38
2022-08-05T20:36:51.502Z,97435.53
2022-08-05T20:46:53.013Z,97490.97
2022-08-05T20:56:54.535Z,97523.66
2022-08-05T21:06:56.091Z,97565.94
2022-08-05T21:16:57.588Z,97594.22
2022-08-05T21:26:59.158Z,97600.31
2022-08-05T21:37:00.851Z,97611.41
2022-08-05T21:47:04.037Z,97611.59
2022-08-05T21:57:34.034Z,97631.81
2022-08-05T22:07:40.362Z,97671.97
2022-08-05T22:17:59.802Z,97673.53
2022-08-05T22:28:09.415Z,97655.91
2022-08-05T22:38:13.548Z,97696.34
2022-08-05T22:48:16.846Z,97702.38
2022-08-05T22:58:28.233Z,97743.19
2022-08-05T23:08:30.373Z,97741.84
2022-08-05T23:18:32.350Z,97748.94
2022-08-05T23:28:33.932Z,97761.09
2022-08-05T23:38:35.426Z,97758.06
2022-08-05T23:48:36.965Z,97766.19
2022-08-05T23:58:38.880Z,97803.88
